createdAt,value
2018-07-31T00:01:08.638Z,101060.84
2018-07-31T00:03:37.849Z,101058.06
2018-07-31T00:06:13.520Z,101057.42
2018-07-31T00:08:43.828Z,101051.32
2018-07-31T00:11:13.320Z,101050.56
2018-07-31T00:13:42.503Z,101049.00
2018-07-31T00:16:12.213Z,101048.80
2018-07-31T00:18:41.303Z,101050.58
2018-07-31T00:21:10.398Z,101049.75
2018-07-31T00:23:39.746Z,101059.13
2018-07-31T00:26:08.881Z,101053.40
2018-07-31T00:28:37.934Z,101052.91
2018-07-31T00:31:09.972Z,101052.27
2018-07-31T00:33:39.352Z,101052.88
2018-07-31T00:36:08.468Z,101047.36
2018-07-31T00:38:38.168Z,101045.64
2018-07-31T00:41:08.856Z,101046.08
2018-07-31T00:43:38.354Z,101046.02
2018-07-31T00:46:07.922Z,101043.86
2018-07-31T00:48:37.186Z,101049.37
2018-07-31T00:51:08.716Z,101045.33
2018-07-31T00:53:38.063Z,101048.07
2018-07-31T00:56:07.743Z,101043.69
2018-07-31T00:58:36.821Z,101048.83
2018-07-31T01:01:10.282Z,101045.94
2018-07-31T01:03:39.580Z,101043.29
2018-07-31T01:06:08.682Z,101043.36
2018-07-31T01:08:38.169Z,101043.81
2018-07-31T01:11:11.426Z,101040.78
2018-07-31T01:13:41.059Z,101042.98
2018-07-31T01:16:10.133Z,101044.03
2018-07-31T01:18:39.300Z,101043.17
2018-07-31T01:21:08.760Z,101041.12
2018-07-31T01:23:37.955Z,101038.27
2018-07-31T01:26:07.445Z,101042.12
2018-07-31T01:28:36.673Z,101041.76
2018-07-31T01:31:09.643Z,101039.44
2018-07-31T01:33:38.965Z,101036.89
2018-07-31T01:36:08.052Z,101038.23
2018-07-31T01:38:37.255Z,101041.98
2018-07-31T01:41:09.182Z,101033.89
2018-07-31T01:43:38.268Z,101040.41
2018-07-31T01:46:08.968Z,101039.51
2018-07-31T01:48:38.065Z,101036.96
2018-07-31T01:51:08.575Z,101031.95
2018-07-31T01:53:38.267Z,101034.42
2018-07-31T01:56:07.485Z,101036.96
2018-07-31T01:58:36.584Z,101043.17
2018-07-31T02:01:08.710Z,101046.24
2018-07-31T02:03:37.820Z,101038.88
2018-07-31T02:06:09.569Z,101043.02
2018-07-31T02:08:38.660Z,101045.34
2018-07-31T02:11:08.390Z,101049.38
2018-07-31T02:13:37.582Z,101044.30
2018-07-31T02:16:07.838Z,101042.31
2018-07-31T02:18:36.895Z,101040.66
2018-07-31T02:21:09.146Z,101036.36
2018-07-31T02:23:38.250Z,101043.05
2018-07-31T02:26:08.085Z,101042.61
2018-07-31T02:28:37.793Z,101045.67
2018-07-31T02:31:09.250Z,101040.13
2018-07-31T02:33:38.616Z,101036.95
2018-07-31T02:36:07.707Z,101035.94
2018-07-31T02:38:36.786Z,101038.49
2018-07-31T02:41:08.913Z,101038.34
2018-07-31T02:43:37.981Z,101041.41
2018-07-31T02:46:07.163Z,101037.37
2018-07-31T02:48:51.334Z,101038.71
2018-07-31T02:51:22.675Z,101038.34
2018-07-31T02:53:52.189Z,101040.20
2018-07-31T02:56:21.285Z,101043.69
2018-07-31T02:58:50.389Z,101034.55
2018-07-31T03:01:19.875Z,101034.70
2018-07-31T03:03:48.950Z,101035.86
2018-07-31T03:06:18.040Z,101029.95
2018-07-31T03:08:47.171Z,101026.77
2018-07-31T03:11:16.247Z,101026.43
2018-07-31T03:13:45.331Z,101026.77
2018-07-31T03:16:14.534Z,101031.81
2018-07-31T03:18:43.596Z,101034.70
2018-07-31T03:21:13.050Z,101032.91
2018-07-31T03:23:42.136Z,101047.09
2018-07-31T03:26:11.237Z,101047.77
2018-07-31T03:28:56.374Z,101045.59
2018-07-31T03:31:25.708Z,101048.59
2018-07-31T03:33:54.933Z,101057.16
2018-07-31T03:36:24.212Z,101057.87
2018-07-31T03:38:53.529Z,101053.30
2018-07-31T03:41:22.620Z,101048.44
2018-07-31T03:43:52.477Z,101048.36
2018-07-31T03:46:21.576Z,101057.45
2018-07-31T03:48:51.332Z,101048.02
2018-07-31T03:51:20.385Z,101051.58
2018-07-31T03:53:49.487Z,101054.13
2018-07-31T03:56:18.788Z,101049.08
2018-07-31T03:58:48.429Z,101048.59
2018-07-31T04:01:17.559Z,101052.97
2018-07-31T04:03:46.632Z,101050.91
2018-07-31T04:06:15.856Z,101052.77
2018-07-31T04:08:47.174Z,101053.89
2018-07-31T04:11:16.290Z,101059.09
2018-07-31T04:13:45.362Z,101048.80
2018-07-31T04:16:14.602Z,101055.20
2018-07-31T04:18:43.779Z,101055.05
2018-07-31T04:21:14.867Z,101049.86
2018-07-31T04:23:43.950Z,101053.60
2018-07-31T04:26:13.289Z,101053.72
2018-07-31T04:31:21.118Z,101047.55
2018-07-31T04:33:50.351Z,101050.58
2018-07-31T04:36:19.740Z,101048.03
2018-07-31T04:38:49.927Z,101047.55
2018-07-31T04:41:19.239Z,101051.59
2018-07-31T04:43:48.304Z,101050.87
2018-07-31T04:46:18.852Z,101063.38
2018-07-31T04:48:48.095Z,101062.17
2018-07-31T04:51:17.329Z,101063.94
2018-07-31T04:53:46.581Z,101072.45
2018-07-31T04:56:15.760Z,101067.73
2018-07-31T04:58:47.112Z,101073.42
2018-07-31T05:01:16.216Z,101072.55
2018-07-31T05:03:45.456Z,101079.30
2018-07-31T05:06:14.701Z,101077.95
2018-07-31T05:08:44.086Z,101074.54
2018-07-31T05:11:13.522Z,101071.65
2018-07-31T05:13:42.892Z,101073.14
2018-07-31T05:16:12.209Z,101077.67
2018-07-31T05:18:41.474Z,101082.05
2018-07-31T05:21:10.727Z,101082.77
2018-07-31T05:23:40.240Z,101082.28
2018-07-31T05:26:09.880Z,101090.84
2018-07-31T05:28:40.490Z,101084.48
2018-07-31T05:31:09.761Z,101092.67
2018-07-31T05:33:39.470Z,101086.61
2018-07-31T05:36:08.827Z,101082.05
2018-07-31T05:38:37.915Z,101085.89
2018-07-31T05:41:09.479Z,101088.59
2018-07-31T05:43:39.039Z,101084.59
2018-07-31T05:46:09.855Z,101084.68
2018-07-31T05:48:41.675Z,101089.14
2018-07-31T05:51:11.384Z,101093.23
2018-07-31T05:53:40.542Z,101105.28
2018-07-31T05:56:09.667Z,101106.95
2018-07-31T05:58:39.020Z,101104.71
2018-07-31T06:01:08.623Z,101106.40
2018-07-31T06:03:37.789Z,101103.66
2018-07-31T06:06:09.152Z,101112.61
2018-07-31T06:08:38.272Z,101101.97
2018-07-31T06:11:08.775Z,101104.23
2018-07-31T06:13:41.249Z,101103.07
2018-07-31T06:16:10.346Z,101113.44
2018-07-31T06:18:39.772Z,101104.37
2018-07-31T06:21:09.327Z,101115.20
2018-07-31T06:23:38.387Z,101118.65
2018-07-31T06:26:07.474Z,101121.64
2018-07-31T06:28:36.825Z,101130.22
2018-07-31T06:31:07.386Z,101137.00
2018-07-31T06:33:36.692Z,101132.20
2018-07-31T06:36:07.936Z,101132.24
2018-07-31T06:38:38.655Z,101135.16
2018-07-31T06:41:07.749Z,101138.16
2018-07-31T06:43:36.878Z,101143.06
2018-07-31T06:46:07.590Z,101146.55
2018-07-31T06:48:36.658Z,101137.44
2018-07-31T06:51:06.882Z,101146.84
2018-07-31T06:56:10.418Z,101151.34
2018-07-31T06:58:39.463Z,101151.08
2018-07-31T07:01:08.573Z,101156.81
2018-07-31T07:03:37.799Z,101171.04
2018-07-31T07:06:07.621Z,101163.52
2018-07-31T07:08:36.724Z,101161.61
2018-07-31T07:11:08.679Z,101157.03
2018-07-31T07:13:37.879Z,101157.72
2018-07-31T07:16:07.637Z,101156.46
2018-07-31T07:18:37.286Z,101157.41
2018-07-31T07:21:07.853Z,101163.67
2018-07-31T07:23:37.639Z,101156.04
2018-07-31T07:26:07.579Z,101156.01
2018-07-31T07:28:36.726Z,101144.49
2018-07-31T07:31:08.600Z,101124.75
2018-07-31T07:33:37.694Z,101114.33
2018-07-31T07:36:07.402Z,101120.38
2018-07-31T07:38:36.781Z,101127.42
2018-07-31T07:41:07.866Z,101128.13
2018-07-31T07:43:36.949Z,101126.17
2018-07-31T07:46:07.607Z,101130.31
2018-07-31T07:48:36.687Z,101136.16
2018-07-31T07:51:07.618Z,101132.17
2018-07-31T07:53:36.715Z,101136.89
2018-07-31T07:56:08.368Z,101139.80
2018-07-31T07:58:38.484Z,101139.76
2018-07-31T08:01:07.757Z,101141.40
2018-07-31T08:03:36.963Z,101137.51
2018-07-31T08:06:07.505Z,101140.25
2018-07-31T08:08:36.782Z,101134.84
2018-07-31T08:11:08.268Z,101139.27
2018-07-31T08:13:37.705Z,101144.22
2018-07-31T08:16:07.373Z,101133.92
2018-07-31T08:18:36.760Z,101137.81
2018-07-31T08:21:07.509Z,101141.08
2018-07-31T08:23:36.902Z,101152.29
2018-07-31T08:26:07.620Z,101155.18
2018-07-31T08:28:36.941Z,101153.50
2018-07-31T08:31:07.375Z,101160.78
2018-07-31T08:33:36.987Z,101156.75
2018-07-31T08:36:07.290Z,101161.55
2018-07-31T08:38:36.685Z,101156.44
2018-07-31T08:41:07.234Z,101167.12
2018-07-31T08:43:37.054Z,101170.69
2018-07-31T08:46:07.449Z,101173.72
2018-07-31T08:48:36.481Z,101177.45
2018-07-31T08:51:08.446Z,101174.91
2018-07-31T08:53:37.780Z,101173.38
2018-07-31T08:56:08.471Z,101169.81
2018-07-31T08:58:37.572Z,101176.27
2018-07-31T09:01:08.496Z,101173.53
2018-07-31T09:03:38.730Z,101176.60
2018-07-31T09:06:07.825Z,101170.47
2018-07-31T09:08:36.974Z,101173.03
2018-07-31T09:11:07.750Z,101173.45
2018-07-31T09:13:36.844Z,101175.53
2018-07-31T09:16:07.781Z,101165.40
2018-07-31T09:18:37.396Z,101162.39
2018-07-31T09:21:07.811Z,101155.36
2018-07-31T09:23:36.887Z,101154.27
2018-07-31T09:26:07.635Z,101155.75
2018-07-31T09:28:36.676Z,101157.73
2018-07-31T09:31:14.590Z,101166.48
2018-07-31T09:33:44.320Z,101169.77
2018-07-31T09:36:13.424Z,101167.84
2018-07-31T09:38:42.542Z,101169.70
2018-07-31T09:41:11.834Z,101175.26
2018-07-31T09:43:41.070Z,101178.72
2018-07-31T09:46:10.447Z,101176.73
2018-07-31T09:48:39.688Z,101182.36
2018-07-31T09:51:09.049Z,101179.95
2018-07-31T09:53:38.330Z,101184.97
2018-07-31T09:56:07.541Z,101193.33
2018-07-31T09:58:37.050Z,101193.56
2018-07-31T10:01:13.154Z,101186.14
2018-07-31T10:03:42.701Z,101186.30
2018-07-31T10:06:12.039Z,101182.02
2018-07-31T10:08:41.153Z,101190.11
2018-07-31T10:11:10.584Z,101188.36
2018-07-31T10:13:39.670Z,101189.91
2018-07-31T10:16:09.095Z,101200.47
2018-07-31T10:18:38.339Z,101201.59
2018-07-31T10:21:07.952Z,101208.02
2018-07-31T10:23:37.423Z,101201.66
2018-07-31T10:26:08.324Z,101198.94
2018-07-31T10:28:37.574Z,101202.77
2018-07-31T10:31:07.599Z,101200.88
2018-07-31T10:33:36.716Z,101212.19
2018-07-31T10:36:07.377Z,101214.22
2018-07-31T10:38:36.471Z,101209.66
2018-07-31T10:41:07.511Z,101221.02
2018-07-31T10:43:36.611Z,101208.58
2018-07-31T10:46:07.462Z,101215.38
2018-07-31T10:48:36.517Z,101221.19
2018-07-31T10:51:07.738Z,101220.86
2018-07-31T10:53:36.790Z,101218.41
2018-07-31T10:56:07.523Z,101221.53
2018-07-31T10:58:36.769Z,101227.02
2018-07-31T11:01:08.086Z,101210.95
2018-07-31T11:03:37.286Z,101216.92
2018-07-31T11:06:07.747Z,101217.11
2018-07-31T11:08:37.001Z,101215.09
2018-07-31T11:11:07.831Z,101219.27
2018-07-31T11:13:37.233Z,101228.04
2018-07-31T11:16:07.605Z,101218.34
2018-07-31T11:18:36.701Z,101218.62
2018-07-31T11:21:08.285Z,101222.66
2018-07-31T11:23:37.520Z,101220.48
2018-07-31T11:26:07.633Z,101209.81
2018-07-31T11:28:37.245Z,101218.15
2018-07-31T11:31:07.815Z,101225.34
2018-07-31T11:33:36.933Z,101219.03
2018-07-31T11:36:07.640Z,101224.48
2018-07-31T11:38:36.752Z,101224.90
2018-07-31T11:41:07.530Z,101216.22
2018-07-31T11:43:36.597Z,101220.08
2018-07-31T11:46:07.551Z,101212.95
2018-07-31T11:48:36.652Z,101210.45
2018-07-31T11:51:07.708Z,101218.06
2018-07-31T11:53:36.968Z,101220.52
2018-07-31T11:56:08.853Z,101222.16
2018-07-31T11:58:37.961Z,101218.77
2018-07-31T12:01:07.469Z,101210.55
2018-07-31T12:03:36.726Z,101214.91
2018-07-31T12:06:07.598Z,101224.30
2018-07-31T12:08:36.742Z,101220.05
2018-07-31T12:11:07.727Z,101222.55
2018-07-31T12:13:36.982Z,101225.86
2018-07-31T12:16:08.953Z,101224.00
2018-07-31T12:18:38.544Z,101219.06
2018-07-31T12:21:09.314Z,101220.90
2018-07-31T12:23:38.399Z,101222.20
2018-07-31T12:26:08.000Z,101221.66
2018-07-31T12:28:37.348Z,101227.20
2018-07-31T12:31:08.213Z,101223.80
2018-07-31T12:33:38.015Z,101225.88
2018-07-31T12:36:07.605Z,101227.75
2018-07-31T12:38:36.865Z,101217.19
2018-07-31T12:41:07.439Z,101234.00
2018-07-31T12:43:36.715Z,101227.70
2018-07-31T12:46:07.301Z,101244.36
2018-07-31T12:48:36.728Z,101228.83
2018-07-31T12:51:07.461Z,101231.68
2018-07-31T12:53:42.949Z,101235.91
2018-07-31T12:56:12.089Z,101240.23
2018-07-31T12:58:41.159Z,101242.09
2018-07-31T13:01:10.842Z,101243.81
2018-07-31T13:03:39.881Z,101233.95
2018-07-31T13:06:08.986Z,101241.17
2018-07-31T13:08:38.627Z,101229.19
2018-07-31T13:11:08.064Z,101231.67
2018-07-31T13:13:37.169Z,101237.11
2018-07-31T13:16:07.671Z,101231.22
2018-07-31T13:18:36.803Z,101227.82
2018-07-31T13:21:07.989Z,101228.88
2018-07-31T13:23:37.087Z,101227.75
2018-07-31T13:26:08.022Z,101236.67
2018-07-31T13:28:37.142Z,101234.63
2018-07-31T13:31:07.750Z,101238.34
2018-07-31T13:33:36.891Z,101235.10
2018-07-31T13:36:07.407Z,101226.33
2018-07-31T13:38:36.761Z,101239.47
2018-07-31T13:41:08.070Z,101235.85
2018-07-31T13:43:37.373Z,101240.30
2018-07-31T13:46:07.366Z,101232.41
2018-07-31T13:48:36.511Z,101234.51
2018-07-31T13:51:07.993Z,101227.91
2018-07-31T13:53:37.462Z,101234.55
2018-07-31T13:56:07.732Z,101236.30
2018-07-31T13:58:37.129Z,101238.43
2018-07-31T14:01:07.633Z,101235.56
2018-07-31T14:03:37.011Z,101239.53
2018-07-31T14:08:41.905Z,101225.50
2018-07-31T14:11:10.999Z,101231.83
2018-07-31T14:13:40.127Z,101230.66
2018-07-31T14:16:09.411Z,101232.11
2018-07-31T14:18:38.938Z,101233.08
2018-07-31T14:21:08.082Z,101232.78
2018-07-31T14:23:37.715Z,101243.05
2018-07-31T14:26:07.269Z,101231.70
2018-07-31T14:28:37.242Z,101230.43
2018-07-31T14:31:07.506Z,101244.76
2018-07-31T14:33:37.235Z,101238.48
2018-07-31T14:36:07.493Z,101235.55
2018-07-31T14:38:36.574Z,101233.48
2018-07-31T14:41:07.832Z,101233.89
2018-07-31T14:43:37.295Z,101240.09
2018-07-31T14:46:07.738Z,101238.98
2018-07-31T14:48:37.162Z,101238.57
2018-07-31T14:51:07.545Z,101249.02
2018-07-31T14:53:36.632Z,101238.78
2018-07-31T14:56:07.775Z,101235.75
2018-07-31T14:58:36.933Z,101233.22
2018-07-31T15:01:08.083Z,101242.66
2018-07-31T15:03:37.912Z,101236.70
2018-07-31T15:06:07.598Z,101240.29
2018-07-31T15:08:43.606Z,101233.02
2018-07-31T15:11:13.014Z,101243.52
2018-07-31T15:13:42.644Z,101239.05
2018-07-31T15:16:11.757Z,101241.66
2018-07-31T15:18:41.260Z,101239.05
2018-07-31T15:21:10.709Z,101234.04
2018-07-31T15:23:40.157Z,101237.55
2018-07-31T15:26:09.246Z,101239.55
2018-07-31T15:28:38.725Z,101234.38
2018-07-31T15:31:08.686Z,101235.69
2018-07-31T15:33:38.193Z,101234.53
2018-07-31T15:36:07.588Z,101238.73
2018-07-31T15:38:36.661Z,101236.42
2018-07-31T15:41:07.723Z,101238.53
2018-07-31T15:43:36.969Z,101243.70
2018-07-31T15:46:07.501Z,101242.03
2018-07-31T15:48:36.681Z,101236.22
2018-07-31T15:51:08.031Z,101248.34
2018-07-31T15:53:37.277Z,101234.03
2018-07-31T15:56:08.440Z,101242.41
2018-07-31T15:58:37.549Z,101240.05
2018-07-31T16:01:07.589Z,101235.75
2018-07-31T16:03:36.949Z,101244.55
2018-07-31T16:06:08.870Z,101249.00
2018-07-31T16:08:38.427Z,101249.92
2018-07-31T16:11:08.754Z,101238.27
2018-07-31T16:13:37.918Z,101243.60
2018-07-31T16:16:09.181Z,101247.09
2018-07-31T16:18:38.275Z,101245.12
2018-07-31T16:21:08.338Z,101247.87
2018-07-31T16:23:37.801Z,101248.77
2018-07-31T16:26:07.241Z,101255.25
2018-07-31T16:28:36.406Z,101242.89
2018-07-31T16:31:07.761Z,101248.56
2018-07-31T16:33:37.108Z,101251.76
2018-07-31T16:36:07.788Z,101245.57
2018-07-31T16:38:37.188Z,101258.82
2018-07-31T16:41:12.359Z,101256.99
2018-07-31T16:43:41.457Z,101253.56
2018-07-31T16:46:10.677Z,101254.39
2018-07-31T16:48:40.028Z,101244.14
2018-07-31T16:51:15.367Z,101249.32
2018-07-31T16:53:44.509Z,101252.12
2018-07-31T16:56:13.600Z,101261.16
2018-07-31T16:58:42.675Z,101261.77
2018-07-31T17:01:12.050Z,101258.95
2018-07-31T17:03:41.150Z,101255.06
2018-07-31T17:06:10.742Z,101263.59
2018-07-31T17:08:40.269Z,101254.74
2018-07-31T17:11:09.561Z,101260.77
2018-07-31T17:13:38.666Z,101270.23
2018-07-31T17:16:10.139Z,101257.94
2018-07-31T17:18:39.214Z,101264.98
2018-07-31T17:21:08.348Z,101266.64
2018-07-31T17:23:37.683Z,101269.67
2018-07-31T17:26:08.536Z,101268.98
2018-07-31T17:28:39.494Z,101270.34
2018-07-31T17:31:08.571Z,101276.81
2018-07-31T17:33:37.973Z,101283.67
2018-07-31T17:36:09.047Z,101281.75
2018-07-31T17:38:38.351Z,101294.10
2018-07-31T17:41:09.764Z,101286.78
2018-07-31T17:43:39.361Z,101286.92
2018-07-31T17:46:14.024Z,101298.00
2018-07-31T17:48:43.227Z,101295.88
2018-07-31T17:51:13.020Z,101305.89
2018-07-31T17:53:42.093Z,101295.92
2018-07-31T17:56:11.301Z,101300.25
2018-07-31T17:58:42.425Z,101308.59
2018-07-31T18:01:11.694Z,101308.80
2018-07-31T18:03:41.156Z,101308.16
2018-07-31T18:06:11.036Z,101311.41
2018-07-31T18:08:40.116Z,101316.72
2018-07-31T18:11:09.280Z,101328.59
2018-07-31T18:13:43.673Z,101325.89
2018-07-31T18:16:12.835Z,101331.34
2018-07-31T18:18:41.982Z,101330.33
2018-07-31T18:21:11.708Z,101334.93
2018-07-31T18:23:40.985Z,101331.55
2018-07-31T18:26:10.142Z,101332.55
2018-07-31T18:28:39.559Z,101330.72
2018-07-31T18:31:08.662Z,101333.59
2018-07-31T18:33:37.939Z,101330.73
2018-07-31T18:36:08.058Z,101339.20
2018-07-31T18:38:37.232Z,101336.48
2018-07-31T18:41:11.272Z,101342.58
2018-07-31T18:43:40.319Z,101329.38
2018-07-31T18:46:10.135Z,101331.75
2018-07-31T18:48:40.235Z,101339.19
2018-07-31T18:51:09.413Z,101340.54
2018-07-31T18:53:38.516Z,101346.47
2018-07-31T18:56:08.584Z,101356.09
2018-07-31T18:58:37.706Z,101350.34
2018-07-31T19:01:07.486Z,101350.67
2018-07-31T19:03:37.037Z,101353.72
2018-07-31T19:06:07.456Z,101356.41
2018-07-31T19:08:36.564Z,101363.70
2018-07-31T19:11:07.673Z,101366.38
2018-07-31T19:13:37.039Z,101370.12
2018-07-31T19:16:08.911Z,101378.39
2018-07-31T19:18:38.053Z,101371.91
2018-07-31T19:21:07.565Z,101378.28
2018-07-31T19:23:36.950Z,101379.63
2018-07-31T19:26:07.596Z,101387.06
2018-07-31T19:28:37.456Z,101393.88
2018-07-31T19:31:07.828Z,101399.46
2018-07-31T19:33:37.262Z,101391.30
2018-07-31T19:36:08.160Z,101397.62
2018-07-31T19:38:37.649Z,101403.03
2018-07-31T19:41:07.507Z,101402.95
2018-07-31T19:43:37.523Z,101403.61
2018-07-31T19:46:07.243Z,101407.39
2018-07-31T19:48:37.309Z,101413.47
2018-07-31T19:51:07.794Z,101414.06
2018-07-31T19:53:37.192Z,101413.02
2018-07-31T19:56:08.404Z,101416.00
2018-07-31T19:58:37.714Z,101423.85
2018-07-31T20:01:07.547Z,101421.30
2018-07-31T20:03:36.771Z,101426.13
2018-07-31T20:06:08.263Z,101432.73
2018-07-31T20:08:37.792Z,101433.33
2018-07-31T20:11:07.943Z,101431.48
2018-07-31T20:13:37.413Z,101439.41
2018-07-31T20:16:07.749Z,101435.99
2018-07-31T20:18:37.305Z,101447.08
2018-07-31T20:21:07.729Z,101458.53
2018-07-31T20:23:36.817Z,101461.44
2018-07-31T20:26:08.839Z,101454.83
2018-07-31T20:28:38.181Z,101459.36
2018-07-31T20:31:10.205Z,101461.20
2018-07-31T20:33:39.475Z,101454.92
2018-07-31T20:36:08.651Z,101459.36
2018-07-31T20:38:37.859Z,101460.80
2018-07-31T20:41:08.888Z,101462.43
2018-07-31T20:43:37.988Z,101473.70
2018-07-31T20:46:07.754Z,101474.36
2018-07-31T20:48:38.265Z,101483.45
2018-07-31T20:51:09.593Z,101483.80
2018-07-31T20:53:39.147Z,101486.49
2018-07-31T20:56:08.607Z,101489.06
2018-07-31T20:58:37.688Z,101487.56
2018-07-31T21:01:12.198Z,101486.41
2018-07-31T21:03:41.343Z,101489.91
2018-07-31T21:06:10.389Z,101493.25
2018-07-31T21:08:40.182Z,101491.90
2018-07-31T21:11:09.879Z,101484.47
2018-07-31T21:13:38.984Z,101482.55
2018-07-31T21:16:08.082Z,101483.72
2018-07-31T21:18:37.392Z,101493.06
2018-07-31T21:21:07.906Z,101500.46
2018-07-31T21:23:37.907Z,101506.80
2018-07-31T21:26:10.253Z,101508.16
2018-07-31T21:28:39.964Z,101508.08
2018-07-31T21:31:09.023Z,101508.83
2018-07-31T21:33:38.227Z,101513.17
2018-07-31T21:36:11.363Z,101504.63
2018-07-31T21:38:40.470Z,101515.65
2018-07-31T21:41:10.568Z,101527.05
2018-07-31T21:43:39.842Z,101520.09
2018-07-31T21:46:09.105Z,101517.69
2018-07-31T22:01:37.279Z,101534.27
2018-07-31T22:04:08.609Z,101535.37
2018-07-31T22:06:39.195Z,101535.72
2018-07-31T22:09:08.899Z,101541.98
2018-07-31T22:11:38.499Z,101541.80
2018-07-31T22:14:07.884Z,101542.09
2018-07-31T22:16:36.975Z,101540.69
2018-07-31T22:19:18.377Z,101543.78
2018-07-31T22:21:52.952Z,101542.28
2018-07-31T22:24:22.298Z,101550.32
2018-07-31T22:26:53.559Z,101548.68
2018-07-31T22:29:22.644Z,101547.47
2018-07-31T22:31:51.994Z,101558.13
2018-07-31T22:34:21.601Z,101557.92
2018-07-31T22:36:51.732Z,101553.92
2018-07-31T22:39:20.864Z,101552.44
2018-07-31T22:41:50.219Z,101557.77
2018-07-31T22:44:19.324Z,101544.42
2018-07-31T22:46:48.553Z,101549.95
2018-07-31T22:49:22.081Z,101544.75
2018-07-31T22:51:51.990Z,101553.84
2018-07-31T22:54:21.072Z,101554.12
2018-07-31T22:56:50.674Z,101553.24
2018-07-31T22:59:20.499Z,101554.45
2018-07-31T23:01:49.600Z,101558.57
2018-07-31T23:04:19.009Z,101554.52
2018-07-31T23:06:48.116Z,101560.72
2018-07-31T23:09:17.271Z,101557.92
2018-07-31T23:11:46.591Z,101556.78
2018-07-31T23:14:15.703Z,101563.41
2018-07-31T23:16:48.711Z,101559.37
2018-07-31T23:19:17.964Z,101561.72
2018-07-31T23:21:47.043Z,101562.83
2018-07-31T23:24:16.579Z,101558.85
2018-07-31T23:26:45.663Z,101560.13
2018-07-31T23:29:14.776Z,101553.73
2018-07-31T23:31:44.194Z,101556.78
2018-07-31T23:34:13.381Z,101557.46
2018-07-31T23:36:42.469Z,101550.79
2018-07-31T23:39:12.483Z,101550.59
2018-07-31T23:41:41.906Z,101545.95
2018-07-31T23:44:11.870Z,101547.53
2018-07-31T23:46:41.216Z,101553.78
2018-07-31T23:49:10.651Z,101549.53
2018-07-31T23:51:39.742Z,101551.84
2018-07-31T23:54:08.895Z,101558.80
2018-07-31T23:56:37.956Z,101564.62
2018-07-31T23:59:07.445Z,101557.10
